Time;durP1;ratioP1;P1;durP2;ratioP2;P2;SDS_P1;SDS_P2;PMS_P1;PMS_P2;Temp;Humidity;BMP_temperature;BMP_pressure;BME280_temperature;BME280_humidity;BME280_pressure;Samples;Min_cycle;Max_cycle;Signal;HPM_P1;HPM_P2
2023/05/25 00:02:17;;;;;;;31.63;14.98;;;10.30;99.90;;;;;;5082160;28;20021;-51
2023/05/25 00:04:47;;;;;;;37.20;15.45;;;10.30;99.90;;;;;;5070904;28;20398;-52
2023/05/25 00:07:13;;;;;;;23.45;13.32;;;10.20;99.90;;;;;;5091175;28;20101;-50
2023/05/25 00:09:40;;;;;;;34.90;14.48;;;10.10;99.90;;;;;;5091668;28;20038;-50
2023/05/25 00:12:06;;;;;;;39.95;14.70;;;10.10;99.90;;;;;;5091414;28;20028;-50
2023/05/25 00:14:32;;;;;;;42.70;13.98;;;10.10;99.90;;;;;;5089719;28;20375;-50
2023/05/25 00:16:58;;;;;;;28.65;14.85;;;10.00;99.90;;;;;;5091552;28;20018;-53
2023/05/25 00:19:23;;;;;;;38.35;15.50;;;10.00;99.90;;;;;;5091139;28;20016;-53
2023/05/25 00:21:49;;;;;;;34.65;16.08;;;9.90;99.90;;;;;;5091468;28;20047;-50
2023/05/25 00:24:15;;;;;;;43.35;16.00;;;9.90;99.90;;;;;;5087410;28;20493;-52
2023/05/25 00:26:41;;;;;;;39.22;15.93;;;9.90;99.90;;;;;;5086962;28;20028;-51
2023/05/25 00:29:06;;;;;;;38.25;17.30;;;9.80;99.90;;;;;;5091134;28;20500;-52
2023/05/25 00:31:34;;;;;;;36.85;16.92;;;9.80;99.90;;;;;;5088310;28;20274;-51
2023/05/25 00:34:00;;;;;;;35.00;16.38;;;9.80;99.90;;;;;;5070396;28;20017;-51
2023/05/25 00:36:25;;;;;;;39.42;16.13;;;9.80;99.90;;;;;;5082480;28;20114;-53
2023/05/25 00:38:51;;;;;;;42.58;17.35;;;9.70;99.90;;;;;;5090807;28;20087;-53
2023/05/25 00:41:17;;;;;;;35.67;16.92;;;9.70;99.90;;;;;;5091209;28;20048;-51
2023/05/25 00:43:46;;;;;;;32.13;15.98;;;9.70;99.90;;;;;;5091311;28;20031;-53
2023/05/25 00:46:14;;;;;;;35.67;16.73;;;9.60;99.90;;;;;;5089957;28;20032;-53
2023/05/25 00:48:41;;;;;;;33.28;15.68;;;9.60;99.90;;;;;;5090393;28;20058;-52
2023/05/25 00:51:06;;;;;;;34.78;17.05;;;9.60;99.90;;;;;;5089254;28;20112;-50
2023/05/25 00:53:32;;;;;;;31.35;17.27;;;9.50;99.90;;;;;;5090334;28;20024;-53
2023/05/25 00:56:12;;;;;;;34.97;16.90;;;9.50;99.90;;;;;;5089904;28;20528;-53
2023/05/25 00:58:42;;;;;;;45.85;16.58;;;9.50;99.90;;;;;;5090634;28;20023;-53
2023/05/25 01:01:12;;;;;;;39.97;17.65;;;9.50;99.90;;;;;;5090316;28;20021;-50
2023/05/25 01:03:41;;;;;;;34.37;17.27;;;9.50;99.90;;;;;;5064545;28;20088;-52
2023/05/25 01:06:12;;;;;;;28.67;13.85;;;9.50;99.90;;;;;;5080273;28;20311;-50
2023/05/25 01:08:43;;;;;;;49.05;18.17;;;9.40;99.90;;;;;;5090413;28;20132;-51
2023/05/25 01:11:10;;;;;;;31.65;15.48;;;9.40;99.90;;;;;;5090406;28;20413;-52
2023/05/25 01:13:37;;;;;;;46.38;17.52;;;9.40;99.90;;;;;;5081707;28;20020;-53
2023/05/25 01:16:05;;;;;;;38.28;16.65;;;9.40;99.90;;;;;;5089131;28;20119;-52
2023/05/25 01:18:32;;;;;;;41.70;19.02;;;9.30;99.90;;;;;;5089947;28;20024;-51
2023/05/25 01:21:16;;;;;;;42.97;18.35;;;9.30;99.90;;;;;;5089989;28;20015;-53
2023/05/25 01:24:07;;;;;;;36.33;17.75;;;9.20;99.90;;;;;;5090140;28;20024;-53
2023/05/25 01:26:38;;;;;;;47.38;18.60;;;9.20;99.90;;;;;;5090085;28;20032;-52
2023/05/25 01:29:03;;;;;;;;;;;9.20;99.90;;;;;;5090447;28;20055;-54
2023/05/25 01:31:30;;;;;;;38.63;16.73;;;9.20;99.90;;;;;;5086056;28;20195;-53
2023/05/25 01:33:56;;;;;;;42.42;17.30;;;9.10;99.90;;;;;;5084812;28;20437;-53
2023/05/25 01:36:21;;;;;;;35.72;17.27;;;9.10;99.90;;;;;;5082065;28;20047;-50
2023/05/25 01:38:48;;;;;;;43.00;18.15;;;9.10;99.90;;;;;;5088145;28;20498;-52
2023/05/25 01:41:14;;;;;;;41.75;18.30;;;9.10;99.90;;;;;;5089582;28;20012;-52
2023/05/25 01:43:40;;;;;;;39.08;16.88;;;9.10;99.90;;;;;;5089461;28;20027;-52
2023/05/25 01:46:09;;;;;;;48.72;18.55;;;9.10;99.90;;;;;;5089014;28;20031;-52
2023/05/25 01:48:51;;;;;;;46.42;19.67;;;9.00;99.90;;;;;;5088978;28;20111;-51
2023/05/25 01:51:35;;;;;;;42.75;18.17;;;9.00;99.90;;;;;;5089383;28;20068;-53
2023/05/25 01:54:16;;;;;;;41.47;20.30;;;8.90;99.90;;;;;;5076930;28;20060;-52
2023/05/25 01:56:45;;;;;;;50.78;19.45;;;8.90;99.90;;;;;;5071659;28;20037;-51
2023/05/25 01:59:13;;;;;;;39.90;19.60;;;8.90;99.90;;;;;;5072807;28;20020;-50
2023/05/25 02:01:41;;;;;;;38.65;17.77;;;8.80;99.90;;;;;;5071982;28;20020;-50
2023/05/25 02:04:07;;;;;;;30.83;17.42;;;8.80;99.90;;;;;;5067732;28;20016;-52
2023/05/25 02:06:35;;;;;;;31.52;16.77;;;8.80;99.90;;;;;;5072209;28;20440;-53
2023/05/25 02:09:00;;;;;;;36.25;17.90;;;8.80;99.90;;;;;;5073662;28;20025;-52
2023/05/25 02:11:26;;;;;;;49.05;20.17;;;8.80;99.90;;;;;;5072235;28;20029;-51
2023/05/25 02:13:52;;;;;;;34.35;18.25;;;8.80;99.90;;;;;;5072258;28;20044;-53
2023/05/25 02:16:17;;;;;;;44.03;20.75;;;8.70;99.90;;;;;;5072911;28;20017;-51
2023/05/25 02:18:43;;;;;;;31.02;18.63;;;8.70;99.90;;;;;;5071650;28;20024;-51
2023/05/25 02:21:09;;;;;;;43.22;19.08;;;8.70;99.90;;;;;;5073536;28;20385;-52
2023/05/25 02:23:35;;;;;;;47.10;20.33;;;8.70;99.90;;;;;;5071801;28;20024;-52
2023/05/25 02:26:00;;;;;;;41.58;19.00;;;8.70;99.90;;;;;;5069299;28;20551;-53
2023/05/25 02:28:26;;;;;;;57.15;20.92;;;8.60;99.90;;;;;;5070171;28;20035;-53
2023/05/25 02:30:51;;;;;;;45.78;20.90;;;8.60;99.90;;;;;;5070665;28;20534;-51
2023/05/25 02:33:17;;;;;;;42.28;20.00;;;8.60;99.90;;;;;;5067396;28;20020;-52
2023/05/25 02:35:43;;;;;;;42.55;19.88;;;8.60;99.90;;;;;;5074672;28;20077;-53
2023/05/25 02:38:08;;;;;;;41.90;19.63;;;8.60;99.90;;;;;;5088504;28;20431;-50
2023/05/25 02:40:34;;;;;;;47.05;21.23;;;8.50;99.90;;;;;;5088558;28;20031;-53
2023/05/25 02:43:00;;;;;;;46.40;19.42;;;8.60;99.90;;;;;;5088532;28;20020;-52
2023/05/25 02:45:25;;;;;;;30.10;17.63;;;8.50;99.90;;;;;;5083665;28;20020;-53
2023/05/25 02:47:51;;;;;;;42.67;19.15;;;8.50;99.90;;;;;;5084478;28;20040;-51
2023/05/25 02:50:16;;;;;;;35.55;18.67;;;8.50;99.90;;;;;;5088379;28;20024;-52
2023/05/25 02:52:42;;;;;;;51.72;19.95;;;8.50;99.90;;;;;;5087290;28;20031;-53
2023/05/25 02:55:09;;;;;;;42.38;19.77;;;8.50;99.90;;;;;;5088179;28;20028;-51
2023/05/25 02:57:35;;;;;;;32.70;18.85;;;8.50;99.90;;;;;;5088648;28;20096;-52
2023/05/25 03:00:01;;;;;;;37.50;19.45;;;8.40;99.90;;;;;;5088506;28;20016;-52
2023/05/25 03:02:27;;;;;;;39.78;19.00;;;8.40;99.90;;;;;;5077839;28;20017;-52
2023/05/25 03:04:53;;;;;;;39.80;18.73;;;8.40;99.90;;;;;;5067338;28;20420;-51
2023/05/25 03:07:24;;;;;;;43.17;18.88;;;8.40;99.90;;;;;;5088213;28;20031;-51
2023/05/25 03:09:50;;;;;;;36.80;19.30;;;8.40;99.90;;;;;;5089683;28;20016;-49
2023/05/25 03:12:16;;;;;;;43.17;20.38;;;8.40;99.90;;;;;;5092454;28;20492;-51
2023/05/25 03:14:41;;;;;;;40.20;19.90;;;8.30;99.90;;;;;;5092296;28;20101;-50
2023/05/25 03:17:07;;;;;;;38.85;20.27;;;8.30;99.90;;;;;;5092484;28;20027;-52
2023/05/25 03:19:32;;;;;;;47.88;20.63;;;8.30;99.90;;;;;;5092231;28;20091;-51
2023/05/25 03:21:58;;;;;;;50.42;21.85;;;8.30;99.90;;;;;;5092496;28;20392;-50
2023/05/25 03:24:23;;;;;;;41.50;20.70;;;8.30;99.90;;;;;;5091955;28;20093;-52
2023/05/25 03:26:49;;;;;;;45.60;20.95;;;8.20;99.90;;;;;;5092358;28;20435;-51
2023/05/25 03:29:14;;;;;;;49.17;22.92;;;8.20;99.90;;;;;;5092284;28;20050;-52
2023/05/25 03:31:40;;;;;;;45.95;21.95;;;8.20;99.90;;;;;;5088669;28;20021;-50
2023/05/25 03:34:05;;;;;;;52.13;22.05;;;8.20;99.90;;;;;;5070686;28;20066;-49
2023/05/25 03:36:32;;;;;;;48.55;21.60;;;8.20;99.90;;;;;;5084236;28;20042;-50
2023/05/25 03:38:58;;;;;;;45.75;20.52;;;8.20;99.90;;;;;;5092515;28;20030;-51
2023/05/25 03:41:23;;;;;;;44.28;20.65;;;8.20;99.90;;;;;;5090856;28;20020;-50
2023/05/25 03:43:49;;;;;;;49.15;23.80;;;8.30;99.90;;;;;;5090982;28;20031;-50
2023/05/25 03:46:14;;;;;;;57.13;23.77;;;8.20;99.90;;;;;;5074976;28;20035;-50
2023/05/25 03:48:40;;;;;;;43.45;22.75;;;8.20;99.90;;;;;;5074248;28;20043;-52
2023/05/25 03:51:05;;;;;;;57.85;23.27;;;8.20;99.90;;;;;;5076530;28;20577;-50
2023/05/25 03:53:31;;;;;;;49.67;24.17;;;8.20;99.90;;;;;;5074505;28;20064;-50
2023/05/25 03:55:57;;;;;;;42.10;20.98;;;8.20;99.90;;;;;;5075336;28;20069;-51
2023/05/25 03:58:23;;;;;;;46.97;22.55;;;8.30;99.90;;;;;;5076121;28;20554;-53
2023/05/25 04:00:49;;;;;;;41.60;22.58;;;8.30;99.90;;;;;;5072357;28;20032;-51
2023/05/25 04:03:15;;;;;;;51.35;22.63;;;8.30;99.90;;;;;;5072511;28;20284;-52
2023/05/25 04:05:40;;;;;;;46.13;22.15;;;8.30;99.90;;;;;;5072129;28;20111;-52
2023/05/25 04:08:07;;;;;;;49.85;23.80;;;8.30;99.90;;;;;;5072717;28;20120;-50
2023/05/25 04:10:32;;;;;;;44.25;23.70;;;8.30;99.90;;;;;;5070522;28;20111;-53
2023/05/25 04:12:58;;;;;;;57.80;25.02;;;8.30;99.90;;;;;;5081765;28;20134;-51
2023/05/25 04:15:24;;;;;;;55.47;23.05;;;8.40;99.90;;;;;;5090783;28;20398;-50
2023/05/25 04:17:50;;;;;;;53.35;22.77;;;8.40;99.90;;;;;;5089860;28;20498;-50
2023/05/25 04:20:15;;;;;;;50.00;24.25;;;8.40;99.90;;;;;;5091326;28;20308;-52
2023/05/25 04:22:42;;;;;;;43.33;21.52;;;8.30;99.90;;;;;;5090489;28;20382;-53
2023/05/25 04:25:09;;;;;;;43.25;22.92;;;8.30;99.90;;;;;;5090519;28;20016;-49
2023/05/25 04:27:35;;;;;;;49.10;21.63;;;8.40;99.90;;;;;;5091179;28;20081;-53
2023/05/25 04:30:01;;;;;;;55.15;24.75;;;8.50;99.90;;;;;;5089754;28;20472;-53
2023/05/25 04:32:30;;;;;;;51.30;23.02;;;8.50;99.90;;;;;;5080523;28;20498;-50
2023/05/25 04:34:56;;;;;;;50.90;23.98;;;8.50;99.90;;;;;;5069811;28;20078;-50
2023/05/25 04:37:26;;;;;;;44.70;22.48;;;8.60;99.90;;;;;;5071911;28;20024;-49
2023/05/25 04:39:52;;;;;;;45.75;20.85;;;8.60;99.90;;;;;;5068163;28;20028;-49
2023/05/25 04:42:18;;;;;;;44.45;21.80;;;8.60;99.90;;;;;;5071486;28;20021;-51
2023/05/25 04:44:44;;;;;;;37.47;19.35;;;8.60;99.90;;;;;;5071568;28;20032;-51
2023/05/25 04:47:11;;;;;;;35.78;19.98;;;8.60;99.90;;;;;;5073564;28;20032;-50
2023/05/25 04:49:37;;;;;;;29.25;18.27;;;8.60;99.90;;;;;;5075239;28;20048;-50
2023/05/25 04:52:02;;;;;;;28.90;18.10;;;8.60;99.90;;;;;;5078430;28;20121;-51
2023/05/25 04:54:28;;;;;;;29.55;17.42;;;8.60;99.90;;;;;;5085923;28;20054;-50
2023/05/25 04:56:54;;;;;;;27.98;16.65;;;8.50;99.90;;;;;;5087124;28;20025;-52
2023/05/25 04:59:19;;;;;;;25.10;16.27;;;8.50;99.90;;;;;;5089558;28;20032;-53
2023/05/25 05:01:45;;;;;;;32.83;18.80;;;8.50;99.90;;;;;;5073524;28;20027;-50
2023/05/25 05:04:10;;;;;;;33.70;17.75;;;8.50;99.90;;;;;;5068722;28;20020;-51
2023/05/25 05:06:37;;;;;;;31.52;18.63;;;8.60;99.90;;;;;;5069819;28;20036;-51
2023/05/25 05:09:02;;;;;;;26.17;18.08;;;8.50;99.90;;;;;;5070360;28;20991;-50
2023/05/25 05:11:28;;;;;;;36.33;19.90;;;8.50;99.90;;;;;;5079374;28;20051;-50
2023/05/25 05:13:55;;;;;;;32.60;18.45;;;8.50;99.90;;;;;;5090137;28;20016;-50
2023/05/25 05:16:20;;;;;;;34.45;19.13;;;8.50;99.90;;;;;;5089453;28;20367;-49
2023/05/25 05:18:46;;;;;;;27.77;18.13;;;8.50;99.90;;;;;;5088581;28;20027;-50
2023/05/25 05:21:12;;;;;;;28.95;18.10;;;8.50;99.90;;;;;;5089972;28;20056;-50
2023/05/25 05:23:37;;;;;;;27.08;17.92;;;8.60;99.90;;;;;;5090290;28;20464;-53
2023/05/25 05:26:05;;;;;;;27.27;18.83;;;8.60;99.90;;;;;;5089075;28;20111;-52
2023/05/25 05:28:31;;;;;;;29.27;19.30;;;8.50;99.90;;;;;;5090081;28;20027;-51
2023/05/25 05:30:57;;;;;;;28.70;18.73;;;8.50;99.90;;;;;;5089812;28;20024;-50
2023/05/25 05:33:22;;;;;;;38.50;19.48;;;8.50;99.90;;;;;;5070021;28;20367;-51
2023/05/25 05:35:49;;;;;;;33.90;20.63;;;8.60;99.90;;;;;;5075349;28;20095;-50
2023/05/25 05:38:14;;;;;;;31.38;20.00;;;8.60;99.90;;;;;;5084193;28;20282;-51
2023/05/25 05:40:41;;;;;;;27.58;18.52;;;8.70;99.90;;;;;;5071403;28;20052;-49
2023/05/25 05:43:08;;;;;;;34.05;20.70;;;8.80;99.90;;;;;;5071805;28;20024;-52
2023/05/25 05:45:34;;;;;;;42.05;20.85;;;8.80;99.90;;;;;;5070947;28;20103;-50
2023/05/25 05:47:59;;;;;;;36.40;21.48;;;8.90;99.90;;;;;;5064416;28;20116;-53
2023/05/25 05:50:25;;;;;;;37.35;21.73;;;8.90;99.90;;;;;;5056476;28;20031;-52
2023/05/25 05:52:52;;;;;;;38.00;21.77;;;8.90;99.90;;;;;;5048998;28;20031;-50
2023/05/25 05:55:19;;;;;;;42.22;22.80;;;8.90;99.90;;;;;;5053244;28;20039;-48
2023/05/25 05:57:44;;;;;;;44.65;23.70;;;8.90;99.90;;;;;;5054900;28;20490;-52
2023/05/25 06:00:10;;;;;;;39.05;22.52;;;9.00;99.90;;;;;;5048963;28;20064;-50
2023/05/25 06:02:36;;;;;;;45.30;26.00;;;9.00;99.90;;;;;;5049492;28;20117;-50
2023/05/25 06:05:01;;;;;;;50.88;27.35;;;9.00;99.90;;;;;;5048418;28;20456;-50
2023/05/25 06:07:27;;;;;;;40.95;24.50;;;9.00;99.90;;;;;;5051324;28;20027;-50
